createdAt,value
2022-08-30T00:03:46.611Z,1.80
2022-08-30T00:07:48.390Z,2.13
2022-08-30T00:11:52.073Z,1.83
2022-08-30T00:15:54.220Z,2.05
2022-08-30T00:19:56.043Z,2.17
2022-08-30T00:23:57.719Z,2.03
2022-08-30T00:27:59.436Z,1.98
2022-08-30T00:32:02.447Z,2.25
2022-08-30T00:36:04.690Z,1.98
2022-08-30T00:40:09.314Z,2.15
2022-08-30T00:44:11.231Z,2.72
2022-08-30T00:48:12.979Z,2.10
2022-08-30T00:52:16.591Z,2.15
2022-08-30T00:56:18.923Z,3.30
2022-08-30T01:00:20.626Z,2.13
2022-08-30T01:04:25.968Z,2.92
2022-08-30T01:08:27.651Z,2.67
2022-08-30T01:12:30.098Z,2.60
2022-08-30T01:16:33.727Z,2.63
2022-08-30T01:21:01.369Z,3.30
2022-08-30T01:25:08.181Z,2.45
2022-08-30T01:29:15.354Z,3.00
2022-08-30T01:33:20.062Z,2.45
2022-08-30T01:37:28.171Z,2.63
2022-08-30T01:45:33.063Z,2.83
2022-08-30T01:49:34.911Z,2.75
2022-08-30T01:53:36.490Z,2.97
2022-08-30T01:57:38.118Z,2.90
2022-08-30T02:01:39.966Z,4.28
2022-08-30T02:05:41.885Z,3.47
2022-08-30T02:09:44.420Z,3.10
2022-08-30T02:13:48.243Z,3.25
2022-08-30T02:17:49.882Z,3.75
2022-08-30T02:21:51.749Z,3.70
2022-08-30T02:25:54.285Z,3.75
2022-08-30T02:29:56.085Z,3.88
2022-08-30T02:33:57.706Z,4.00
2022-08-30T02:37:59.312Z,4.13
2022-08-30T02:42:00.948Z,4.32
2022-08-30T02:46:02.622Z,4.30
2022-08-30T02:50:06.529Z,4.60
2022-08-30T02:54:08.153Z,4.38
2022-08-30T02:58:10.676Z,4.47
2022-08-30T03:02:12.625Z,4.30
2022-08-30T03:06:14.712Z,4.28
2022-08-30T03:10:17.318Z,4.50
2022-08-30T03:14:19.285Z,5.18
2022-08-30T03:18:21.802Z,4.65
2022-08-30T03:22:23.536Z,4.57
2022-08-30T03:26:25.145Z,5.20
2022-08-30T03:30:27.198Z,5.03
2022-08-30T03:34:28.921Z,4.75
2022-08-30T03:38:31.171Z,5.13
2022-08-30T03:42:32.918Z,4.68
2022-08-30T03:46:37.437Z,5.05
2022-08-30T03:50:40.307Z,4.97
2022-08-30T03:54:41.905Z,5.10
2022-08-30T03:58:44.119Z,4.95
2022-08-30T04:02:45.852Z,4.40
2022-08-30T04:06:47.470Z,5.40
2022-08-30T04:10:49.403Z,4.85
2022-08-30T04:14:51.219Z,5.28
2022-08-30T04:18:53.137Z,4.82
2022-08-30T04:22:54.741Z,4.57
2022-08-30T04:26:56.730Z,5.70
2022-08-30T04:30:58.348Z,4.97
2022-08-30T04:35:00.071Z,5.40
2022-08-30T04:39:01.762Z,5.50
2022-08-30T04:43:04.267Z,4.97
2022-08-30T04:47:05.872Z,5.40
2022-08-30T04:51:10.271Z,5.82
2022-08-30T04:55:16.851Z,5.18
2022-08-30T04:59:22.115Z,5.55
2022-08-30T05:03:23.753Z,5.13
2022-08-30T05:07:25.376Z,5.25
2022-08-30T05:11:27.222Z,5.43
2022-08-30T05:15:28.810Z,5.65
2022-08-30T05:19:33.698Z,5.72
2022-08-30T05:23:36.383Z,5.85
2022-08-30T05:27:38.040Z,5.38
2022-08-30T05:31:39.686Z,5.25
2022-08-30T05:35:41.433Z,5.32
2022-08-30T05:39:50.743Z,5.70
2022-08-30T05:43:57.941Z,6.07
2022-08-30T05:47:59.657Z,6.50
2022-08-30T05:52:01.346Z,5.93
2022-08-30T05:56:06.095Z,6.15
2022-08-30T06:00:14.329Z,5.30
2022-08-30T06:04:16.590Z,6.20
2022-08-30T06:08:18.439Z,5.60
2022-08-30T06:12:20.265Z,5.45
2022-08-30T06:16:24.541Z,4.95
2022-08-30T06:20:26.556Z,4.63
2022-08-30T06:24:53.652Z,5.15
2022-08-30T06:28:50.504Z,4.68
2022-08-30T06:32:52.109Z,4.35
2022-08-30T06:36:53.949Z,3.90
2022-08-30T06:40:55.605Z,4.07
2022-08-30T06:44:58.755Z,4.57
2022-08-30T06:49:01.581Z,3.95
2022-08-30T06:53:05.974Z,4.45
2022-08-30T06:57:07.771Z,3.63
2022-08-30T07:01:16.259Z,3.67
2022-08-30T07:05:18.918Z,3.53
2022-08-30T07:09:23.110Z,3.15
2022-08-30T07:13:25.033Z,2.80
2022-08-30T07:17:45.226Z,2.88
2022-08-30T07:21:48.898Z,2.55
2022-08-30T07:25:51.063Z,2.50
2022-08-30T07:29:52.764Z,2.72
2022-08-30T07:33:55.003Z,2.90
2022-08-30T07:37:56.615Z,2.53
2022-08-30T07:41:58.369Z,2.50
2022-08-30T07:46:08.066Z,1.80
2022-08-30T07:50:09.849Z,1.70
2022-08-30T07:54:11.631Z,2.38
2022-08-30T07:58:13.241Z,2.05
2022-08-30T08:02:14.962Z,1.70
2022-08-30T08:06:18.817Z,1.73
2022-08-30T08:10:20.566Z,1.50
2022-08-30T08:14:23.675Z,1.30
2022-08-30T08:18:25.422Z,1.40
2022-08-30T08:22:27.105Z,1.40
2022-08-30T08:26:28.891Z,1.50
2022-08-30T08:30:36.060Z,1.23
2022-08-30T08:34:37.714Z,1.30
2022-08-30T08:38:39.339Z,1.30
2022-08-30T08:43:20.017Z,1.48
2022-08-30T08:47:38.582Z,1.15
2022-08-30T08:52:00.484Z,1.50
2022-08-30T08:56:12.205Z,0.90
2022-08-30T09:00:14.382Z,2.17
2022-08-30T09:04:26.151Z,1.33
2022-08-30T09:08:27.741Z,1.30
2022-08-30T09:12:29.574Z,1.73
2022-08-30T09:16:49.530Z,1.35
2022-08-30T09:20:52.426Z,0.80
2022-08-30T09:25:27.657Z,0.98
2022-08-30T09:29:29.311Z,0.95
2022-08-30T09:33:32.118Z,1.08
2022-08-30T09:37:38.799Z,1.25
2022-08-30T09:41:43.833Z,1.52
2022-08-30T09:46:05.401Z,1.60
2022-08-30T09:50:10.977Z,1.27
2022-08-30T09:54:26.721Z,1.10
2022-08-30T09:58:59.173Z,1.33
2022-08-30T10:03:35.373Z,2.28
2022-08-30T10:08:04.608Z,1.70
2022-08-30T10:12:18.325Z,1.30
2022-08-30T10:16:40.149Z,1.63
2022-08-30T10:20:48.405Z,1.30
2022-08-30T10:24:59.278Z,1.48
2022-08-30T10:29:16.767Z,1.20
2022-08-30T10:33:26.479Z,1.70
2022-08-30T10:37:39.843Z,1.70
2022-08-30T10:41:48.585Z,1.45
2022-08-30T10:45:55.070Z,1.20
2022-08-30T10:50:15.754Z,1.10
2022-08-30T10:54:24.049Z,1.20
2022-08-30T10:58:25.877Z,1.13
2022-08-30T11:02:57.355Z,0.80
2022-08-30T11:07:12.434Z,1.35
2022-08-30T11:11:44.791Z,0.93
2022-08-30T11:16:06.465Z,1.38
2022-08-30T11:20:31.269Z,1.45
2022-08-30T11:25:10.017Z,1.75
2022-08-30T11:29:27.581Z,2.17
2022-08-30T11:33:41.203Z,3.03
2022-08-30T11:37:44.490Z,1.98
2022-08-30T11:45:52.544Z,1.80
2022-08-30T11:50:22.984Z,1.75
2022-08-30T11:54:42.802Z,2.38
2022-08-30T11:59:17.659Z,4.78
2022-08-30T12:03:20.539Z,2.28
2022-08-30T12:08:00.308Z,2.03
2022-08-30T12:12:25.147Z,1.80
2022-08-30T12:16:31.059Z,2.00
2022-08-30T12:20:48.275Z,2.38
2022-08-30T12:24:52.760Z,1.80
2022-08-30T12:29:15.670Z,1.67
2022-08-30T12:33:29.624Z,1.77
2022-08-30T12:37:38.162Z,1.75
2022-08-30T12:41:45.232Z,1.35
2022-08-30T12:45:50.857Z,1.63
2022-08-30T12:49:54.518Z,1.58
2022-08-30T12:54:24.261Z,1.52
2022-08-30T12:58:45.148Z,1.40
2022-08-30T13:02:52.053Z,1.77
2022-08-30T13:07:01.183Z,1.70
2022-08-30T13:11:10.247Z,1.67
2022-08-30T13:15:27.587Z,1.77
2022-08-30T13:19:41.057Z,2.28
2022-08-30T13:23:42.846Z,3.03
2022-08-30T13:27:44.436Z,2.88
2022-08-30T13:31:46.541Z,2.47
2022-08-30T13:35:53.053Z,2.15
2022-08-30T13:39:55.991Z,2.67
2022-08-30T13:44:16.243Z,2.22
2022-08-30T13:48:25.046Z,1.92
2022-08-30T13:52:27.151Z,2.22
2022-08-30T13:56:32.104Z,1.35
2022-08-30T14:00:37.709Z,1.52
2022-08-30T14:04:39.792Z,1.80
2022-08-30T14:08:46.290Z,1.35
2022-08-30T14:12:55.293Z,1.77
2022-08-30T14:17:00.638Z,1.33
2022-08-30T14:21:02.485Z,1.42
2022-08-30T14:25:04.833Z,1.38
2022-08-30T14:29:09.490Z,1.25
2022-08-30T14:33:11.395Z,1.42
2022-08-30T14:37:15.040Z,2.28
2022-08-30T14:41:16.747Z,2.55
2022-08-30T14:45:18.940Z,2.28
2022-08-30T14:49:22.553Z,2.08
2022-08-30T14:53:24.835Z,1.80
2022-08-30T14:57:26.796Z,1.63
2022-08-30T15:01:30.409Z,1.50
2022-08-30T15:05:32.442Z,2.08
2022-08-30T15:09:34.738Z,1.77
2022-08-30T15:13:36.964Z,4.53
2022-08-30T15:17:39.063Z,2.28
2022-08-30T15:21:44.678Z,2.08
2022-08-30T15:25:47.387Z,2.20
2022-08-30T15:29:49.532Z,1.70
2022-08-30T15:33:51.649Z,2.05
2022-08-30T15:37:53.645Z,2.13
2022-08-30T15:42:00.323Z,1.52
2022-08-30T15:50:16.959Z,1.10
2022-08-30T15:54:21.589Z,2.00
2022-08-30T15:58:23.259Z,1.20
2022-08-30T16:02:27.437Z,1.13
2022-08-30T16:06:32.436Z,1.50
2022-08-30T16:10:34.106Z,1.20
2022-08-30T16:14:35.823Z,1.10
2022-08-30T16:18:39.098Z,1.30
2022-08-30T16:22:40.721Z,1.17
2022-08-30T16:29:47.196Z,1.27
2022-08-30T16:33:53.007Z,1.30
2022-08-30T16:37:54.779Z,1.38
2022-08-30T16:41:56.430Z,0.98
2022-08-30T16:46:06.291Z,1.05
2022-08-30T16:50:08.863Z,1.20
2022-08-30T16:54:10.679Z,2.17
2022-08-30T16:58:15.861Z,1.15
2022-08-30T17:02:20.621Z,1.05
2022-08-30T17:06:22.285Z,1.05
2022-08-30T17:10:26.287Z,1.25
2022-08-30T17:14:33.214Z,0.93
2022-08-30T17:18:35.602Z,1.20
2022-08-30T17:22:38.940Z,0.85
2022-08-30T17:26:40.851Z,1.48
2022-08-30T17:30:42.762Z,1.20
2022-08-30T17:34:46.893Z,1.27
2022-08-30T17:38:48.622Z,1.40
2022-08-30T17:42:50.662Z,1.40
2022-08-30T17:46:52.915Z,1.20
2022-08-30T17:50:56.059Z,1.40
2022-08-30T17:54:58.346Z,1.33
2022-08-30T17:59:00.048Z,1.17
2022-08-30T18:03:01.713Z,0.95
2022-08-30T18:07:04.006Z,0.68
2022-08-30T18:11:06.670Z,1.00
2022-08-30T18:15:12.431Z,1.35
2022-08-30T18:19:17.437Z,1.27
2022-08-30T18:23:19.121Z,1.08
2022-08-30T18:27:28.310Z,1.52
2022-08-30T18:31:30.178Z,1.30
2022-08-30T18:35:31.836Z,1.15
2022-08-30T18:39:34.743Z,1.05
2022-08-30T18:43:37.203Z,1.15
2022-08-30T18:47:38.813Z,1.10
2022-08-30T18:51:40.535Z,1.45
2022-08-30T18:55:42.254Z,1.27
2022-08-30T18:59:43.973Z,1.45
2022-08-30T19:03:45.662Z,1.63
2022-08-30T19:07:50.979Z,1.27
2022-08-30T19:15:58.545Z,1.40
2022-08-30T19:20:00.771Z,1.38
2022-08-30T19:24:02.549Z,1.45
2022-08-30T19:28:05.632Z,1.58
2022-08-30T19:32:08.198Z,1.77
2022-08-30T19:36:11.862Z,1.85
2022-08-30T19:40:16.185Z,1.90
2022-08-30T19:44:18.308Z,1.70
2022-08-30T19:48:22.213Z,1.75
2022-08-30T19:52:24.697Z,1.60
2022-08-30T19:56:26.773Z,1.65
2022-08-30T20:00:31.156Z,1.85
2022-08-30T20:04:33.791Z,1.75
2022-08-30T20:08:36.619Z,1.58
2022-08-30T20:12:39.946Z,2.10
2022-08-30T20:16:47.513Z,1.52
2022-08-30T20:20:49.991Z,1.85
2022-08-30T20:24:51.877Z,1.75
2022-08-30T20:28:59.840Z,1.83
2022-08-30T20:33:05.067Z,2.17
2022-08-30T20:37:09.924Z,2.10
2022-08-30T20:41:19.793Z,2.20
2022-08-30T20:45:21.593Z,2.38
2022-08-30T20:49:23.418Z,2.47
2022-08-30T20:53:25.069Z,2.67
2022-08-30T20:57:26.957Z,2.60
2022-08-30T21:01:30.489Z,2.47
2022-08-30T21:05:32.151Z,2.38
2022-08-30T21:09:33.800Z,4.13
2022-08-30T21:13:37.222Z,2.50
2022-08-30T21:17:38.873Z,2.22
2022-08-30T21:21:41.892Z,2.55
2022-08-30T21:25:43.848Z,2.08
2022-08-30T21:29:45.606Z,1.95
2022-08-30T21:33:49.382Z,1.58
2022-08-30T21:37:51.022Z,1.70
2022-08-30T21:41:56.807Z,1.75
2022-08-30T21:46:06.574Z,1.27
2022-08-30T21:50:08.570Z,2.33
2022-08-30T21:54:11.977Z,1.30
2022-08-30T21:58:13.617Z,1.52
2022-08-30T22:02:15.242Z,1.70
2022-08-30T22:06:17.206Z,1.50
2022-08-30T22:10:19.625Z,1.13
2022-08-30T22:14:22.578Z,1.50
2022-08-30T22:18:24.189Z,1.70
2022-08-30T22:22:25.789Z,1.60
2022-08-30T22:26:28.319Z,1.63
2022-08-30T22:30:30.018Z,0.77
2022-08-30T22:34:32.251Z,1.42
2022-08-30T22:38:34.478Z,0.98
2022-08-30T22:42:37.006Z,1.55
2022-08-30T22:46:39.177Z,1.48
2022-08-30T22:50:40.948Z,1.00
2022-08-30T22:54:42.634Z,1.00
2022-08-30T22:58:46.090Z,1.08
2022-08-30T23:02:50.143Z,1.13
2022-08-30T23:06:51.885Z,1.55
2022-08-30T23:10:53.761Z,1.40
2022-08-30T23:14:55.547Z,1.30
2022-08-30T23:18:57.142Z,0.98
2022-08-30T23:22:58.806Z,0.93
2022-08-30T23:27:18.872Z,1.38
2022-08-30T23:31:39.210Z,1.10
2022-08-30T23:36:00.052Z,1.30
2022-08-30T23:40:20.451Z,1.00
2022-08-30T23:44:40.791Z,0.82
2022-08-30T23:49:00.995Z,1.67
2022-08-30T23:53:21.195Z,1.08
2022-08-30T23:57:41.408Z,1.25
